sensor_id;sensor_type;location;lat;lon;timestamp;temperature;humidity
10051;DHT22;5065;46.942;7.432;2023-05-07T00:00:09;17.00;99.90
10051;DHT22;5065;46.942;7.432;2023-05-07T00:02:36;17.00;99.90
10051;DHT22;5065;46.942;7.432;2023-05-07T00:05:04;17.00;99.90
10051;DHT22;5065;46.942;7.432;2023-05-07T00:07:32;17.00;99.90
10051;DHT22;5065;46.942;7.432;2023-05-07T00:09:59;17.00;99.90
10051;DHT22;5065;46.942;7.432;2023-05-07T00:12:26;17.00;99.90
10051;DHT22;5065;46.942;7.432;2023-05-07T00:14:58;17.00;99.90
10051;DHT22;5065;46.942;7.432;2023-05-07T00:17:25;17.00;99.90
10051;DHT22;5065;46.942;7.432;2023-05-07T00:19:52;17.00;99.90
10051;DHT22;5065;46.942;7.432;2023-05-07T00:22:20;17.00;99.90
10051;DHT22;5065;46.942;7.432;2023-05-07T00:24:47;17.00;99.90
10051;DHT22;5065;46.942;7.432;2023-05-07T00:27:14;17.00;99.90
10051;DHT22;5065;46.942;7.432;2023-05-07T00:29:41;17.00;99.90
10051;DHT22;5065;46.942;7.432;2023-05-07T00:32:10;17.00;99.90
10051;DHT22;5065;46.942;7.432;2023-05-07T00:34:37;16.90;99.90
10051;DHT22;5065;46.942;7.432;2023-05-07T00:37:05;16.80;99.90
10051;DHT22;5065;46.942;7.432;2023-05-07T00:39:33;16.80;99.90
10051;DHT22;5065;46.942;7.432;2023-05-07T00:42:00;16.90;99.90
10051;DHT22;5065;46.942;7.432;2023-05-07T00:44:27;16.80;99.90
10051;DHT22;5065;46.942;7.432;2023-05-07T00:46:56;16.80;99.90
10051;DHT22;5065;46.942;7.432;2023-05-07T00:49:32;16.80;99.90
10051;DHT22;5065;46.942;7.432;2023-05-07T00:52:02;16.80;99.90
10051;DHT22;5065;46.942;7.432;2023-05-07T00:54:29;16.70;99.90
10051;DHT22;5065;46.942;7.432;2023-05-07T00:56:56;16.70;99.90
10051;DHT22;5065;46.942;7.432;2023-05-07T00:59:24;16.60;99.90
10051;DHT22;5065;46.942;7.432;2023-05-07T01:01:51;16.60;99.90
10051;DHT22;5065;46.942;7.432;2023-05-07T01:04:19;16.60;99.90
10051;DHT22;5065;46.942;7.432;2023-05-07T01:06:49;16.60;99.90
10051;DHT22;5065;46.942;7.432;2023-05-07T01:09:18;16.60;99.90
10051;DHT22;5065;46.942;7.432;2023-05-07T01:11:47;16.60;99.90
10051;DHT22;5065;46.942;7.432;2023-05-07T01:14:15;16.60;99.90
10051;DHT22;5065;46.942;7.432;2023-05-07T01:16:42;16.60;99.90
10051;DHT22;5065;46.942;7.432;2023-05-07T01:19:10;16.60;99.90
10051;DHT22;5065;46.942;7.432;2023-05-07T01:21:43;16.60;99.90
10051;DHT22;5065;46.942;7.432;2023-05-07T01:24:13;16.60;99.90
10051;DHT22;5065;46.942;7.432;2023-05-07T01:26:42;16.60;99.90
10051;DHT22;5065;46.942;7.432;2023-05-07T01:29:09;16.50;99.90
10051;DHT22;5065;46.942;7.432;2023-05-07T01:31:37;16.50;99.90
10051;DHT22;5065;46.942;7.432;2023-05-07T01:34:07;16.40;99.90
10051;DHT22;5065;46.942;7.432;2023-05-07T01:36:37;16.40;99.90
10051;DHT22;5065;46.942;7.432;2023-05-07T01:39:06;16.40;99.90
10051;DHT22;5065;46.942;7.432;2023-05-07T01:41:35;16.40;99.90
10051;DHT22;5065;46.942;7.432;2023-05-07T01:44:03;16.40;99.90
10051;DHT22;5065;46.942;7.432;2023-05-07T01:46:31;16.40;99.90
10051;DHT22;5065;46.942;7.432;2023-05-07T01:48:59;16.30;99.90
10051;DHT22;5065;46.942;7.432;2023-05-07T01:51:26;16.20;99.90
10051;DHT22;5065;46.942;7.432;2023-05-07T01:53:53;16.20;99.90
10051;DHT22;5065;46.942;7.432;2023-05-07T01:56:21;16.30;99.90
10051;DHT22;5065;46.942;7.432;2023-05-07T01:58:50;16.20;99.90
10051;DHT22;5065;46.942;7.432;2023-05-07T02:01:17;16.20;99.90
10051;DHT22;5065;46.942;7.432;2023-05-07T02:03:45;16.20;99.90
10051;DHT22;5065;46.942;7.432;2023-05-07T02:06:12;16.10;99.90
10051;DHT22;5065;46.942;7.432;2023-05-07T02:08:39;16.10;99.90
10051;DHT22;5065;46.942;7.432;2023-05-07T02:11:06;16.10;99.90
10051;DHT22;5065;46.942;7.432;2023-05-07T02:13:34;16.10;99.90
10051;DHT22;5065;46.942;7.432;2023-05-07T02:16:03;16.00;99.90
10051;DHT22;5065;46.942;7.432;2023-05-07T02:18:31;16.00;99.90
10051;DHT22;5065;46.942;7.432;2023-05-07T02:20:58;16.00;99.90
10051;DHT22;5065;46.942;7.432;2023-05-07T02:23:26;16.00;99.90
10051;DHT22;5065;46.942;7.432;2023-05-07T02:25:53;16.00;99.90
10051;DHT22;5065;46.942;7.432;2023-05-07T02:28:20;15.90;99.90
10051;DHT22;5065;46.942;7.432;2023-05-07T02:30:47;15.90;99.90
10051;DHT22;5065;46.942;7.432;2023-05-07T02:33:15;15.90;99.90
10051;DHT22;5065;46.942;7.432;2023-05-07T02:35:42;15.90;99.90
10051;DHT22;5065;46.942;7.432;2023-05-07T02:38:10;15.90;99.90
10051;DHT22;5065;46.942;7.432;2023-05-07T02:40:37;15.90;99.90
10051;DHT22;5065;46.942;7.432;2023-05-07T02:43:05;15.80;99.90
10051;DHT22;5065;46.942;7.432;2023-05-07T02:45:32;15.80;99.90
10051;DHT22;5065;46.942;7.432;2023-05-07T02:47:59;15.80;99.90
10051;DHT22;5065;46.942;7.432;2023-05-07T02:50:28;15.80;99.90
10051;DHT22;5065;46.942;7.432;2023-05-07T02:52:55;15.70;99.90
10051;DHT22;5065;46.942;7.432;2023-05-07T02:55:23;15.70;99.90
10051;DHT22;5065;46.942;7.432;2023-05-07T02:57:50;15.70;99.90
10051;DHT22;5065;46.942;7.432;2023-05-07T03:00:18;15.70;99.90
10051;DHT22;5065;46.942;7.432;2023-05-07T03:02:46;15.70;99.90
10051;DHT22;5065;46.942;7.432;2023-05-07T03:05:13;15.70;99.90
10051;DHT22;5065;46.942;7.432;2023-05-07T03:07:41;15.70;99.90
10051;DHT22;5065;46.942;7.432;2023-05-07T03:10:10;15.70;99.90
10051;DHT22;5065;46.942;7.432;2023-05-07T03:12:38;15.70;99.90
10051;DHT22;5065;46.942;7.432;2023-05-07T03:15:06;15.60;99.90
10051;DHT22;5065;46.942;7.432;2023-05-07T03:17:33;15.50;99.90
10051;DHT22;5065;46.942;7.432;2023-05-07T03:20:00;15.50;99.90
10051;DHT22;5065;46.942;7.432;2023-05-07T03:22:28;15.50;99.90
10051;DHT22;5065;46.942;7.432;2023-05-07T03:24:56;15.50;99.90
10051;DHT22;5065;46.942;7.432;2023-05-07T03:27:24;15.50;99.90
10051;DHT22;5065;46.942;7.432;2023-05-07T03:29:51;15.40;99.90
10051;DHT22;5065;46.942;7.432;2023-05-07T03:32:18;15.40;99.90
10051;DHT22;5065;46.942;7.432;2023-05-07T03:34:45;15.40;99.90
10051;DHT22;5065;46.942;7.432;2023-05-07T03:37:12;15.40;99.90
10051;DHT22;5065;46.942;7.432;2023-05-07T03:39:39;15.40;99.90
10051;DHT22;5065;46.942;7.432;2023-05-07T03:42:08;15.40;99.90
10051;DHT22;5065;46.942;7.432;2023-05-07T03:44:35;15.40;99.90
10051;DHT22;5065;46.942;7.432;2023-05-07T03:47:02;15.40;99.90
10051;DHT22;5065;46.942;7.432;2023-05-07T03:49:30;15.40;99.90
10051;DHT22;5065;46.942;7.432;2023-05-07T03:51:57;15.40;99.90
10051;DHT22;5065;46.942;7.432;2023-05-07T03:54:24;15.40;99.90
10051;DHT22;5065;46.942;7.432;2023-05-07T03:56:51;15.40;99.90
10051;DHT22;5065;46.942;7.432;2023-05-07T03:59:19;15.50;99.90
10051;DHT22;5065;46.942;7.432;2023-05-07T04:01:47;15.50;99.90
10051;DHT22;5065;46.942;7.432;2023-05-07T04:04:14;15.50;99.90
10051;DHT22;5065;46.942;7.432;2023-05-07T04:06:41;15.50;99.90
10051;DHT22;5065;46.942;7.432;2023-05-07T04:09:08;15.60;99.90
10051;DHT22;5065;46.942;7.432;2023-05-07T04:11:36;15.60;99.90
10051;DHT22;5065;46.942;7.432;2023-05-07T04:14:03;15.60;99.90
10051;DHT22;5065;46.942;7.432;2023-05-07T04:16:32;15.60;99.90
10051;DHT22;5065;46.942;7.432;2023-05-07T04:18:59;15.60;99.90
10051;DHT22;5065;46.942;7.432;2023-05-07T04:21:26;15.60;99.90
10051;DHT22;5065;46.942;7.432;2023-05-07T04:23:53;15.60;99.90
10051;DHT22;5065;46.942;7.432;2023-05-07T04:26:20;15.60;99.90
10051;DHT22;5065;46.942;7.432;2023-05-07T04:28:48;15.60;99.90
10051;DHT22;5065;46.942;7.432;2023-05-07T04:31:16;15.70;99.90
10051;DHT22;5065;46.942;7.432;2023-05-07T04:33:44;15.60;99.90
10051;DHT22;5065;46.942;7.432;2023-05-07T04:36:12;15.70;99.90
10051;DHT22;5065;46.942;7.432;2023-05-07T04:38:39;15.60;99.90
10051;DHT22;5065;46.942;7.432;2023-05-07T04:41:08;15.60;99.90
10051;DHT22;5065;46.942;7.432;2023-05-07T04:43:35;15.70;99.90
10051;DHT22;5065;46.942;7.432;2023-05-07T04:46:02;15.70;99.90
10051;DHT22;5065;46.942;7.432;2023-05-07T04:48:29;15.60;99.90
10051;DHT22;5065;46.942;7.432;2023-05-07T04:50:58;15.70;99.90
10051;DHT22;5065;46.942;7.432;2023-05-07T04:53:25;15.60;99.90
10051;DHT22;5065;46.942;7.432;2023-05-07T04:55:55;15.60;99.90
10051;DHT22;5065;46.942;7.432;2023-05-07T04:58:23;15.60;99.90
10051;DHT22;5065;46.942;7.432;2023-05-07T05:00:50;15.60;99.90
10051;DHT22;5065;46.942;7.432;2023-05-07T05:03:17;15.60;99.90
10051;DHT22;5065;46.942;7.432;2023-05-07T05:05:44;15.60;99.90
10051;DHT22;5065;46.942;7.432;2023-05-07T05:08:13;15.60;99.90
10051;DHT22;5065;46.942;7.432;2023-05-07T05:10:40;15.60;99.90
10051;DHT22;5065;46.942;7.432;2023-05-07T05:13:09;15.60;99.90
10051;DHT22;5065;46.942;7.432;2023-05-07T05:15:38;15.70;99.90
10051;DHT22;5065;46.942;7.432;2023-05-07T05:18:05;15.70;99.90
10051;DHT22;5065;46.942;7.432;2023-05-07T05:20:32;15.70;99.90
10051;DHT22;5065;46.942;7.432;2023-05-07T05:22:59;15.80;99.90
10051;DHT22;5065;46.942;7.432;2023-05-07T05:25:28;15.80;99.90
10051;DHT22;5065;46.942;7.432;2023-05-07T05:27:55;15.80;99.90
10051;DHT22;5065;46.942;7.432;2023-05-07T05:30:22;15.90;99.90
10051;DHT22;5065;46.942;7.432;2023-05-07T05:32:49;16.00;99.90
10051;DHT22;5065;46.942;7.432;2023-05-07T05:35:16;16.10;99.90
10051;DHT22;5065;46.942;7.432;2023-05-07T05:37:44;16.10;99.90
10051;DHT22;5065;46.942;7.432;2023-05-07T05:40:11;16.20;99.90
10051;DHT22;5065;46.942;7.432;2023-05-07T05:42:42;16.20;99.90
10051;DHT22;5065;46.942;7.432;2023-05-07T05:45:09;16.30;99.90
10051;DHT22;5065;46.942;7.432;2023-05-07T05:47:37;16.30;99.90
10051;DHT22;5065;46.942;7.432;2023-05-07T05:50:06;16.40;99.90
10051;DHT22;5065;46.942;7.432;2023-05-07T05:52:34;16.50;99.90
10051;DHT22;5065;46.942;7.432;2023-05-07T05:55:02;16.70;99.90
10051;DHT22;5065;46.942;7.432;2023-05-07T05:57:29;16.80;99.90
10051;DHT22;5065;46.942;7.432;2023-05-07T05:59:57;16.90;99.90
10051;DHT22;5065;46.942;7.432;2023-05-07T06:02:24;16.90;99.90
10051;DHT22;5065;46.942;7.432;2023-05-07T06:04:52;17.00;99.90
10051;DHT22;5065;46.942;7.432;2023-05-07T06:07:19;17.00;99.90
10051;DHT22;5065;46.942;7.432;2023-05-07T06:09:46;17.00;99.90
10051;DHT22;5065;46.942;7.432;2023-05-07T06:12:13;17.00;99.90
10051;DHT22;5065;46.942;7.432;2023-05-07T06:14:42;17.10;99.90
10051;DHT22;5065;46.942;7.432;2023-05-07T06:17:11;17.10;99.90
10051;DHT22;5065;46.942;7.432;2023-05-07T06:19:38;17.10;99.90
10051;DHT22;5065;46.942;7.432;2023-05-07T06:22:05;17.20;99.90
10051;DHT22;5065;46.942;7.432;2023-05-07T06:24:32;17.20;99.90
10051;DHT22;5065;46.942;7.432;2023-05-07T06:26:59;17.20;99.90
10051;DHT22;5065;46.942;7.432;2023-05-07T06:29:27;17.30;99.90
10051;DHT22;5065;46.942;7.432;2023-05-07T06:31:56;17.30;99.90
10051;DHT22;5065;46.942;7.432;2023-05-07T06:34:24;17.30;99.90
10051;DHT22;5065;46.942;7.432;2023-05-07T06:36:51;17.30;99.90
10051;DHT22;5065;46.942;7.432;2023-05-07T06:39:18;17.30;99.90
10051;DHT22;5065;46.942;7.432;2023-05-07T06:41:46;17.20;99.90
10051;DHT22;5065;46.942;7.432;2023-05-07T06:44:13;17.20;99.90
10051;DHT22;5065;46.942;7.432;2023-05-07T06:46:41;17.20;99.90
10051;DHT22;5065;46.942;7.432;2023-05-07T06:49:08;17.20;99.90
10051;DHT22;5065;46.942;7.432;2023-05-07T06:51:36;17.40;99.90
10051;DHT22;5065;46.942;7.432;2023-05-07T06:54:04;17.60;99.90
10051;DHT22;5065;46.942;7.432;2023-05-07T06:56:31;17.90;99.90
10051;DHT22;5065;46.942;7.432;2023-05-07T06:58:59;18.20;99.90
10051;DHT22;5065;46.942;7.432;2023-05-07T07:01:26;18.40;99.90
10051;DHT22;5065;46.942;7.432;2023-05-07T07:03:54;18.60;99.90
10051;DHT22;5065;46.942;7.432;2023-05-07T07:06:21;18.70;99.90
10051;DHT22;5065;46.942;7.432;2023-05-07T07:08:49;18.70;99.90
10051;DHT22;5065;46.942;7.432;2023-05-07T07:11:17;18.60;99.90
10051;DHT22;5065;46.942;7.432;2023-05-07T07:13:44;18.70;99.90
10051;DHT22;5065;46.942;7.432;2023-05-07T07:16:11;18.80;99.90
10051;DHT22;5065;46.942;7.432;2023-05-07T07:18:38;18.90;99.90
10051;DHT22;5065;46.942;7.432;2023-05-07T07:21:05;18.90;99.90
10051;DHT22;5065;46.942;7.432;2023-05-07T07:23:32;19.00;99.90
10051;DHT22;5065;46.942;7.432;2023-05-07T07:26:01;19.10;99.90
10051;DHT22;5065;46.942;7.432;2023-05-07T07:28:28;19.20;99.90
10051;DHT22;5065;46.942;7.432;2023-05-07T07:30:55;19.10;99.90
10051;DHT22;5065;46.942;7.432;2023-05-07T07:33:22;19.00;99.90
10051;DHT22;5065;46.942;7.432;2023-05-07T07:35:50;18.90;99.90
10051;DHT22;5065;46.942;7.432;2023-05-07T07:38:17;18.70;99.90
10051;DHT22;5065;46.942;7.432;2023-05-07T07:40:44;18.70;99.90
10051;DHT22;5065;46.942;7.432;2023-05-07T07:43:13;18.60;99.90
10051;DHT22;5065;46.942;7.432;2023-05-07T07:45:40;18.60;99.90
10051;DHT22;5065;46.942;7.432;2023-05-07T07:48:07;18.50;99.90
10051;DHT22;5065;46.942;7.432;2023-05-07T07:50:34;18.50;99.90
10051;DHT22;5065;46.942;7.432;2023-05-07T07:53:01;18.40;99.90
10051;DHT22;5065;46.942;7.432;2023-05-07T07:55:29;18.30;99.90
10051;DHT22;5065;46.942;7.432;2023-05-07T07:57:57;18.20;99.90
10051;DHT22;5065;46.942;7.432;2023-05-07T08:00:25;18.00;99.90
10051;DHT22;5065;46.942;7.432;2023-05-07T08:02:52;18.00;99.90
10051;DHT22;5065;46.942;7.432;2023-05-07T08:05:20;18.00;99.90
10051;DHT22;5065;46.942;7.432;2023-05-07T08:07:48;18.00;99.90
10051;DHT22;5065;46.942;7.432;2023-05-07T08:10:17;17.90;99.90
10051;DHT22;5065;46.942;7.432;2023-05-07T08:12:47;17.90;99.90
10051;DHT22;5065;46.942;7.432;2023-05-07T08:15:14;17.90;99.90
10051;DHT22;5065;46.942;7.432;2023-05-07T08:17:43;17.90;99.90
10051;DHT22;5065;46.942;7.432;2023-05-07T08:20:11;18.00;99.90
10051;DHT22;5065;46.942;7.432;2023-05-07T08:22:38;18.10;99.90
10051;DHT22;5065;46.942;7.432;2023-05-07T08:25:06;18.30;99.90
10051;DHT22;5065;46.942;7.432;2023-05-07T08:27:35;18.50;99.90
10051;DHT22;5065;46.942;7.432;2023-05-07T08:30:03;18.80;99.90
10051;DHT22;5065;46.942;7.432;2023-05-07T08:32:31;19.00;99.90
10051;DHT22;5065;46.942;7.432;2023-05-07T08:35:00;19.30;99.90
10051;DHT22;5065;46.942;7.432;2023-05-07T08:37:27;19.50;99.90
10051;DHT22;5065;46.942;7.432;2023-05-07T08:39:54;19.60;99.90
10051;DHT22;5065;46.942;7.432;2023-05-07T08:42:23;19.60;99.90
10051;DHT22;5065;46.942;7.432;2023-05-07T08:44:51;19.80;99.90
10051;DHT22;5065;46.942;7.432;2023-05-07T08:47:20;20.10;99.90
10051;DHT22;5065;46.942;7.432;2023-05-07T08:49:49;20.40;99.90
10051;DHT22;5065;46.942;7.432;2023-05-07T08:52:18;20.70;99.90
10051;DHT22;5065;46.942;7.432;2023-05-07T08:54:46;21.00;99.90
10051;DHT22;5065;46.942;7.432;2023-05-07T08:57:13;21.20;99.90
10051;DHT22;5065;46.942;7.432;2023-05-07T08:59:40;21.40;99.90
10051;DHT22;5065;46.942;7.432;2023-05-07T09:02:09;21.60;99.90
10051;DHT22;5065;46.942;7.432;2023-05-07T09:04:37;21.70;99.90
10051;DHT22;5065;46.942;7.432;2023-05-07T09:07:04;21.80;99.90
10051;DHT22;5065;46.942;7.432;2023-05-07T09:09:33;22.00;99.90
10051;DHT22;5065;46.942;7.432;2023-05-07T09:12:00;22.10;99.90
10051;DHT22;5065;46.942;7.432;2023-05-07T09:14:29;22.20;99.90
10051;DHT22;5065;46.942;7.432;2023-05-07T09:16:56;22.20;99.90
10051;DHT22;5065;46.942;7.432;2023-05-07T09:19:24;22.30;99.90
10051;DHT22;5065;46.942;7.432;2023-05-07T09:21:58;22.50;99.90
10051;DHT22;5065;46.942;7.432;2023-05-07T09:24:25;22.60;99.90
10051;DHT22;5065;46.942;7.432;2023-05-07T09:26:57;22.70;99.90
10051;DHT22;5065;46.942;7.432;2023-05-07T09:29:25;22.70;99.90
10051;DHT22;5065;46.942;7.432;2023-05-07T09:31:54;22.90;99.90
10051;DHT22;5065;46.942;7.432;2023-05-07T09:34:21;23.00;99.90
10051;DHT22;5065;46.942;7.432;2023-05-07T09:36:48;23.10;99.90
10051;DHT22;5065;46.942;7.432;2023-05-07T09:39:16;23.10;99.90
10051;DHT22;5065;46.942;7.432;2023-05-07T09:41:44;23.00;99.90
10051;DHT22;5065;46.942;7.432;2023-05-07T09:44:14;23.00;99.90
10051;DHT22;5065;46.942;7.432;2023-05-07T09:46:43;23.10;99.90
10051;DHT22;5065;46.942;7.432;2023-05-07T09:49:15;23.20;99.90
10051;DHT22;5065;46.942;7.432;2023-05-07T09:51:48;23.20;99.90
10051;DHT22;5065;46.942;7.432;2023-05-07T09:54:16;23.20;99.90
10051;DHT22;5065;46.942;7.432;2023-05-07T09:56:43;23.30;99.90
10051;DHT22;5065;46.942;7.432;2023-05-07T09:59:14;23.20;99.90
10051;DHT22;5065;46.942;7.432;2023-05-07T10:01:43;23.30;99.90
10051;DHT22;5065;46.942;7.432;2023-05-07T10:04:10;23.20;99.90
10051;DHT22;5065;46.942;7.432;2023-05-07T10:06:38;23.20;99.90
10051;DHT22;5065;46.942;7.432;2023-05-07T10:09:05;23.20;99.90
10051;DHT22;5065;46.942;7.432;2023-05-07T10:11:33;23.10;99.90
10051;DHT22;5065;46.942;7.432;2023-05-07T10:14:01;23.10;99.90
10051;DHT22;5065;46.942;7.432;2023-05-07T10:16:31;23.10;99.90
10051;DHT22;5065;46.942;7.432;2023-05-07T10:19:03;23.10;99.90
10051;DHT22;5065;46.942;7.432;2023-05-07T10:21:30;23.10;99.90
10051;DHT22;5065;46.942;7.432;2023-05-07T10:24:00;23.00;99.90
10051;DHT22;5065;46.942;7.432;2023-05-07T10:26:32;23.00;99.90
10051;DHT22;5065;46.942;7.432;2023-05-07T10:29:05;23.10;99.90
10051;DHT22;5065;46.942;7.432;2023-05-07T10:31:48;23.10;99.90
10051;DHT22;5065;46.942;7.432;2023-05-07T10:34:21;23.10;99.90
10051;DHT22;5065;46.942;7.432;2023-05-07T10:36:50;23.20;99.90
10051;DHT22;5065;46.942;7.432;2023-05-07T10:39:19;23.20;99.90
10051;DHT22;5065;46.942;7.432;2023-05-07T10:41:48;23.30;99.90
10051;DHT22;5065;46.942;7.432;2023-05-07T10:44:25;23.40;99.90
10051;DHT22;5065;46.942;7.432;2023-05-07T10:47:11;23.50;99.90
10051;DHT22;5065;46.942;7.432;2023-05-07T10:52:39;23.80;99.90
10051;DHT22;5065;46.942;7.432;2023-05-07T10:55:22;23.90;99.90
10051;DHT22;5065;46.942;7.432;2023-05-07T10:57:52;24.00;99.90
10051;DHT22;5065;46.942;7.432;2023-05-07T11:00:45;24.10;99.90
10051;DHT22;5065;46.942;7.432;2023-05-07T11:03:14;24.10;99.90
10051;DHT22;5065;46.942;7.432;2023-05-07T11:05:42;24.20;99.90
10051;DHT22;5065;46.942;7.432;2023-05-07T11:08:11;24.20;99.90
10051;DHT22;5065;46.942;7.432;2023-05-07T11:10:51;24.10;99.90
10051;DHT22;5065;46.942;7.432;2023-05-07T11:13:42;24.10;99.90
10051;DHT22;5065;46.942;7.432;2023-05-07T11:16:18;24.10;99.90
10051;DHT22;5065;46.942;7.432;2023-05-07T11:18:47;24.10;99.90
10051;DHT22;5065;46.942;7.432;2023-05-07T11:21:33;24.10;99.90
10051;DHT22;5065;46.942;7.432;2023-05-07T11:24:02;24.20;99.90
10051;DHT22;5065;46.942;7.432;2023-05-07T11:26:30;24.20;99.90
10051;DHT22;5065;46.942;7.432;2023-05-07T11:28:58;24.20;99.90
10051;DHT22;5065;46.942;7.432;2023-05-07T11:31:28;24.10;99.90
10051;DHT22;5065;46.942;7.432;2023-05-07T11:33:55;24.10;99.90
10051;DHT22;5065;46.942;7.432;2023-05-07T11:36:24;24.10;99.90
10051;DHT22;5065;46.942;7.432;2023-05-07T11:38:51;24.10;99.90
10051;DHT22;5065;46.942;7.432;2023-05-07T11:41:18;24.10;99.90
10051;DHT22;5065;46.942;7.432;2023-05-07T11:43:57;24.20;99.90
10051;DHT22;5065;46.942;7.432;2023-05-07T11:46:26;24.10;99.90
10051;DHT22;5065;46.942;7.432;2023-05-07T11:48:55;24.10;99.90
10051;DHT22;5065;46.942;7.432;2023-05-07T11:51:24;24.00;99.90
10051;DHT22;5065;46.942;7.432;2023-05-07T11:53:53;24.10;99.90
10051;DHT22;5065;46.942;7.432;2023-05-07T11:56:21;24.00;99.90
10051;DHT22;5065;46.942;7.432;2023-05-07T11:58:48;24.00;99.90
10051;DHT22;5065;46.942;7.432;2023-05-07T12:01:17;24.00;99.90
10051;DHT22;5065;46.942;7.432;2023-05-07T12:03:46;24.00;99.90
10051;DHT22;5065;46.942;7.432;2023-05-07T12:06:16;24.00;99.90
10051;DHT22;5065;46.942;7.432;2023-05-07T12:08:44;23.90;99.90
10051;DHT22;5065;46.942;7.432;2023-05-07T12:11:14;24.00;99.90
10051;DHT22;5065;46.942;7.432;2023-05-07T12:13:43;24.00;99.90
10051;DHT22;5065;46.942;7.432;2023-05-07T12:16:11;24.00;99.90
10051;DHT22;5065;46.942;7.432;2023-05-07T12:18:38;23.90;99.90
10051;DHT22;5065;46.942;7.432;2023-05-07T12:21:06;23.80;99.90
10051;DHT22;5065;46.942;7.432;2023-05-07T12:23:36;23.80;99.90
10051;DHT22;5065;46.942;7.432;2023-05-07T12:26:04;23.80;99.90
10051;DHT22;5065;46.942;7.432;2023-05-07T12:28:32;23.60;99.90
10051;DHT22;5065;46.942;7.432;2023-05-07T12:31:03;23.60;99.90
10051;DHT22;5065;46.942;7.432;2023-05-07T12:33:31;23.50;99.90
10051;DHT22;5065;46.942;7.432;2023-05-07T12:36:03;23.40;99.90
10051;DHT22;5065;46.942;7.432;2023-05-07T12:38:36;23.40;99.90
10051;DHT22;5065;46.942;7.432;2023-05-07T12:41:04;23.30;99.90
10051;DHT22;5065;46.942;7.432;2023-05-07T12:43:31;23.20;99.90
10051;DHT22;5065;46.942;7.432;2023-05-07T12:46:01;23.20;99.90
10051;DHT22;5065;46.942;7.432;2023-05-07T12:48:28;23.10;99.90
10051;DHT22;5065;46.942;7.432;2023-05-07T12:50:57;23.00;99.90
10051;DHT22;5065;46.942;7.432;2023-05-07T12:53:25;22.90;99.90
10051;DHT22;5065;46.942;7.432;2023-05-07T12:55:56;22.90;99.90
10051;DHT22;5065;46.942;7.432;2023-05-07T12:58:25;22.80;99.90
10051;DHT22;5065;46.942;7.432;2023-05-07T13:00:53;22.80;99.90
10051;DHT22;5065;46.942;7.432;2023-05-07T13:03:25;22.70;99.90
10051;DHT22;5065;46.942;7.432;2023-05-07T13:05:54;22.60;99.90
10051;DHT22;5065;46.942;7.432;2023-05-07T13:08:29;22.50;99.90
10051;DHT22;5065;46.942;7.432;2023-05-07T13:10:59;22.50;99.90
10051;DHT22;5065;46.942;7.432;2023-05-07T13:13:29;22.40;99.90
10051;DHT22;5065;46.942;7.432;2023-05-07T13:15:56;22.40;99.90
10051;DHT22;5065;46.942;7.432;2023-05-07T13:18:24;22.30;99.90
10051;DHT22;5065;46.942;7.432;2023-05-07T13:20:52;22.30;99.90
10051;DHT22;5065;46.942;7.432;2023-05-07T13:23:19;22.20;99.90
10051;DHT22;5065;46.942;7.432;2023-05-07T13:25:47;22.20;99.90
10051;DHT22;5065;46.942;7.432;2023-05-07T13:28:16;22.10;99.90
10051;DHT22;5065;46.942;7.432;2023-05-07T13:30:43;22.10;99.90
10051;DHT22;5065;46.942;7.432;2023-05-07T13:33:10;22.00;99.90
10051;DHT22;5065;46.942;7.432;2023-05-07T13:35:38;21.90;99.90
10051;DHT22;5065;46.942;7.432;2023-05-07T13:38:05;21.80;99.90
10051;DHT22;5065;46.942;7.432;2023-05-07T13:40:32;21.80;99.90
10051;DHT22;5065;46.942;7.432;2023-05-07T13:43:00;21.80;99.90
10051;DHT22;5065;46.942;7.432;2023-05-07T13:45:30;21.80;99.90
10051;DHT22;5065;46.942;7.432;2023-05-07T13:47:57;21.70;99.90
10051;DHT22;5065;46.942;7.432;2023-05-07T13:50:24;21.60;99.90
10051;DHT22;5065;46.942;7.432;2023-05-07T13:52:52;21.50;99.90
10051;DHT22;5065;46.942;7.432;2023-05-07T13:55:22;21.40;99.90
10051;DHT22;5065;46.942;7.432;2023-05-07T13:57:55;21.30;99.90
10051;DHT22;5065;46.942;7.432;2023-05-07T14:00:22;21.10;99.90
10051;DHT22;5065;46.942;7.432;2023-05-07T14:02:51;20.90;99.90
10051;DHT22;5065;46.942;7.432;2023-05-07T14:05:18;20.80;99.90
10051;DHT22;5065;46.942;7.432;2023-05-07T14:07:45;20.60;99.90
10051;DHT22;5065;46.942;7.432;2023-05-07T14:10:14;20.60;99.90
10051;DHT22;5065;46.942;7.432;2023-05-07T14:12:41;20.40;99.90
10051;DHT22;5065;46.942;7.432;2023-05-07T14:15:09;20.30;99.90
10051;DHT22;5065;46.942;7.432;2023-05-07T14:17:36;20.20;99.90
10051;DHT22;5065;46.942;7.432;2023-05-07T14:20:06;20.10;99.90
10051;DHT22;5065;46.942;7.432;2023-05-07T14:22:33;20.00;99.90
10051;DHT22;5065;46.942;7.432;2023-05-07T14:25:00;19.90;99.90
10051;DHT22;5065;46.942;7.432;2023-05-07T14:27:28;19.80;99.90
10051;DHT22;5065;46.942;7.432;2023-05-07T14:29:55;19.80;99.90
10051;DHT22;5065;46.942;7.432;2023-05-07T14:32:22;19.70;99.90
10051;DHT22;5065;46.942;7.432;2023-05-07T14:34:49;19.60;99.90
10051;DHT22;5065;46.942;7.432;2023-05-07T14:37:18;19.50;99.90
10051;DHT22;5065;46.942;7.432;2023-05-07T14:39:46;19.50;99.90
10051;DHT22;5065;46.942;7.432;2023-05-07T14:42:13;19.50;99.90
10051;DHT22;5065;46.942;7.432;2023-05-07T14:44:40;19.50;99.90
10051;DHT22;5065;46.942;7.432;2023-05-07T14:47:08;19.40;99.90
10051;DHT22;5065;46.942;7.432;2023-05-07T14:49:35;19.40;99.90
10051;DHT22;5065;46.942;7.432;2023-05-07T14:52:02;19.30;99.90
10051;DHT22;5065;46.942;7.432;2023-05-07T14:54:35;19.30;99.90
10051;DHT22;5065;46.942;7.432;2023-05-07T14:57:02;19.30;99.90
10051;DHT22;5065;46.942;7.432;2023-05-07T14:59:29;19.30;99.90
10051;DHT22;5065;46.942;7.432;2023-05-07T15:01:57;19.20;99.90
10051;DHT22;5065;46.942;7.432;2023-05-07T15:04:24;19.20;99.90
10051;DHT22;5065;46.942;7.432;2023-05-07T15:06:52;19.10;99.90
10051;DHT22;5065;46.942;7.432;2023-05-07T15:09:19;19.10;99.90
10051;DHT22;5065;46.942;7.432;2023-05-07T15:11:48;19.10;99.90
10051;DHT22;5065;46.942;7.432;2023-05-07T15:14:15;19.10;99.90
10051;DHT22;5065;46.942;7.432;2023-05-07T15:16:42;19.10;99.90
10051;DHT22;5065;46.942;7.432;2023-05-07T15:19:09;19.10;99.90
10051;DHT22;5065;46.942;7.432;2023-05-07T15:21:36;19.00;99.90
10051;DHT22;5065;46.942;7.432;2023-05-07T15:24:04;19.00;99.90
10051;DHT22;5065;46.942;7.432;2023-05-07T15:26:31;19.00;99.90
10051;DHT22;5065;46.942;7.432;2023-05-07T15:29:00;19.10;99.90
10051;DHT22;5065;46.942;7.432;2023-05-07T15:31:28;19.10;99.90
10051;DHT22;5065;46.942;7.432;2023-05-07T15:33:56;19.10;99.90
10051;DHT22;5065;46.942;7.432;2023-05-07T15:36:23;19.10;99.90
10051;DHT22;5065;46.942;7.432;2023-05-07T15:38:51;19.10;99.90
10051;DHT22;5065;46.942;7.432;2023-05-07T15:41:18;19.10;99.90
10051;DHT22;5065;46.942;7.432;2023-05-07T15:43:49;19.00;99.90
10051;DHT22;5065;46.942;7.432;2023-05-07T15:46:20;19.00;99.90
10051;DHT22;5065;46.942;7.432;2023-05-07T15:48:47;19.00;99.90
10051;DHT22;5065;46.942;7.432;2023-05-07T15:51:14;19.00;99.90
10051;DHT22;5065;46.942;7.432;2023-05-07T15:53:42;19.00;99.90